Bend, OR

10:18 AM PST on February 08, 2016 (GMT -0800)
RAWS | | Change Station
CLOSE
Current Station
Personal Weather Station
Location: Bend, OR
Elevation: 5330 ft
Nearby Weather Stations

Elev 5330 ft 44.03 °N, 121.58 °W | Updated 1 hour ago

Clear
Clear
33.0 °F
Feels Like 33.0 °F
N
0.0
Wind Variable Wind from North
Gusts 6.0 mph

Today
High -- | Low -- °F
--% Chance of Precip.
Yesterday
High -- | Low -- °F
Precip. -- in
Pressure 30.55 in
Visibility 10.0 miles
Clouds Clear
Dew Point 32.0 °F
Humidity 97%
Rainfall in
Snow Depth Not available.
7:15 AM 5:25 PM
New Moon, 0% visible
METAR KBDN 081755Z AUTO 00000KT 10SM CLR 09/02 A3055 RMK AO2
Pressure 30.55 in
Visibility 10.0 miles
Clouds Clear
Dew Point 32.0 °F
Humidity 97%
Rainfall in
Snow Depth Not available.
7:15 AM 5:25 PM
New Moon, 0% visible
METAR KBDN 081755Z AUTO 00000KT 10SM CLR 09/02 A3055 RMK AO2

10-Day Weather Forecast

Almanac

Astronomy

Feb. 08, 2016 Rise Set
Actual Time
Civil Twilight
Nautical Twilight
Astronomical Twilight
Moon
Length of Visible Light
Length of Day
Tomorrow will be .
, % of the Moon is Illuminated

Today's Extremes

State Highs State Lows

Community

WunderPhotos

Upload Photos

1,891,475 photos uploaded!

WunderBlog® & News

Nearby

Air Quality

  Air Quality AQ Index Pollutant
Not available.

Snow Depth

Station Depth Elevation

Earthquake Activity

City Distance Mag. Time & Date
Minimum magnitude displayed is 2.5.

Coastal Water Temperatures

Place Temperature

Stations

Nearby Weather Stations

Station Location Temp. Windchill Dew Point Humidity Wind Precip. Elev Updated Type
                   

Watches & Warnings

There are currently no watches in effect.